WetterOnline ( http://www.wetteronline.de )

Wetter aktuell Schleswig

Aktuelles Wetter: Schleswig (48m)

6-stündlich | Neueste Meldungen
Ortszeit Temperatur Wetter
So, 23.09. 2:00 8.8° C bedeckt
Sa, 22.09. 20:00 11.3° C fast wolkenlos
Sa, 22.09. 14:00 14.9° C leicht bewölkt
Sa, 22.09. 8:00 8.8° C fast wolkenlos
Sa, 22.09. 2:00 10.2° C bewölkt
Fr, 21.09. 20:00 11.0° C wolkig
Fr, 21.09. 14:00 14.9° C wolkig
Fr, 21.09. 8:00 17.7° C wolkig
Ortszeit Temperatur Wetter
So, 23.09. 2:00 8.8° C bedeckt
So, 23.09. 1:40 8.9° C leichter Regen
So, 23.09. 1:30 8.8° C bewölkt
So, 23.09. 1:20 8.8° C bewölkt
So, 23.09. 1:10 9.1° C bewölkt
So, 23.09. 1:00 9.0° C leicht bewölkt
So, 23.09. 0:50 9.0° C leicht bewölkt
So, 23.09. 0:30 8.9° C leicht bewölkt
So, 23.09. 0:00 9.7° C wolkig
Sa, 22.09. 23:30 10.0° C leicht bewölkt
Sa, 22.09. 23:00 10.2° C bedeckt
Ortszeit Relative Feuchte Sichtweite
So, 23.09. 2:00 91% 19 km
Sa, 22.09. 20:00 68% 35 km
Sa, 22.09. 14:00 61% 40 km
Sa, 22.09. 8:00 88% 30 km
Sa, 22.09. 2:00 89% 35 km
Fr, 21.09. 20:00 72% 30 km
Fr, 21.09. 14:00 74% 20 km
Fr, 21.09. 8:00 67% 30 km
Ortszeit Relative Feuchte Sichtweite
So, 23.09. 2:00 91% 19 km
So, 23.09. 1:40 88% -
So, 23.09. 1:30 90% 30 km
So, 23.09. 1:20 90% -
So, 23.09. 1:10 87% -
So, 23.09. 1:00 87% 30 km
So, 23.09. 0:50 87% -
So, 23.09. 0:30 87% -
So, 23.09. 0:00 83% 30 km
Sa, 22.09. 23:30 80% 35 km
Sa, 22.09. 23:00 77% 40 km
Ortszeit Niederschlagsmenge Niederschlagsart
So, 23.09. 2:00 0.1 l/m2 in 6 Std. Regen
Sa, 22.09. 20:00 2 l/m2 in 12 Std. -
Sa, 22.09. 14:00 2 l/m2 in 6 Std. Schauer
Sa, 22.09. 8:00 5 l/m2 in 12 Std. Regen
Sa, 22.09. 2:00 4 l/m2 in 6 Std. Regenschauer
Fr, 21.09. 20:00 8 l/m2 in 12 Std. Regenschauer
Fr, 21.09. 14:00 7 l/m2 in 6 Std. Regen
Fr, 21.09. 8:00 0.0 l/m2 in 12 Std. -
Ortszeit Niederschlagsmenge Niederschlagsart
So, 23.09. 2:00 0.1 l/m2 in 1 Std. Regen
So, 23.09. 1:40 keine Meldung -
So, 23.09. 1:30 0.0 l/m2 in 1 Std. -
So, 23.09. 1:20 keine Meldung -
So, 23.09. 1:10 keine Meldung -
So, 23.09. 1:00 0.0 l/m2 in 1 Std. -
So, 23.09. 0:50 keine Meldung -
So, 23.09. 0:30 0.0 l/m2 in 1 Std. -
So, 23.09. 0:00 0.0 l/m2 in 1 Std. -
Sa, 22.09. 23:30 0.0 l/m2 in 1 Std. -
Sa, 22.09. 23:00 0.1 l/m2 in 1 Std. Regen
Ortszeit Stärke Spitze Richtung
km/h Bft. km/h Grad Sektor
So, 23.09. 2:00 7 2 37 250° W
Sa, 22.09. 20:00 18 3 58 260° W
Sa, 22.09. 14:00 24 4 63 280° W
Sa, 22.09. 8:00 9 2 43 230° SW
Sa, 22.09. 2:00 19 3 67 240° SW
Fr, 21.09. 20:00 22 4 72 240° SW
Fr, 21.09. 14:00 32 5 68 250° W
Fr, 21.09. 8:00 19 3 33 180° S
Ortszeit Stärke Spitze Richtung
km/h Bft. km/h Grad Sektor
So, 23.09. 2:00 7 2 20 250° W
So, 23.09. 1:40 7 2 - 250° W
So, 23.09. 1:30 6 1 11 230° SW
So, 23.09. 1:20 6 1 - 230° SW
So, 23.09. 1:10 7 2 - 210° SW
So, 23.09. 1:00 7 2 14 230° SW
So, 23.09. 0:50 7 2 - 230° SW
So, 23.09. 0:30 7 2 15 250° W
So, 23.09. 0:00 9 2 22 240° SW
Sa, 22.09. 23:30 11 2 22 250° W
Sa, 22.09. 23:00 14 3 40 260° W
Ortszeit Untergrenze Bedeckung Gattung
total tief tief mittel hoch
So, 23.09. 2:00 900 m 8/8 8/8 - - -
Sa, 22.09. 20:00 1230 m 2/8 2/8 Cu - Ci
Sa, 22.09. 14:00 1200 m 3/8 2/8 Cu - Ci
Sa, 22.09. 8:00 600 m 1/8 1/8 Cu - -
Sa, 22.09. 2:00 900 m 8/8 4/8 - - -
Fr, 21.09. 20:00 990 m 7/8 3/8 Cu Ac -
Fr, 21.09. 14:00 480 m 7/8 4/8 Cu Ac Ci
Fr, 21.09. 8:00 1200 m 7/8 3/8 Sc Ns -
Ortszeit Bedeckungsgrad in Achtel und Wolkenuntergrenze
So, 23.09. 2:00 2(900m) 4(1140m) 8(1800m)
So, 23.09. 1:40 1(210m) 4(1110m) 8(1800m)
So, 23.09. 1:30 5(1170m) 5(1470m) 7(1800m)
So, 23.09. 1:20 5(1170m) 5(1470m) 7(1800m)
So, 23.09. 1:10 3(1170m) 3(1470m) 7(1800m)
So, 23.09. 1:00 1(1140m) 4(1800m)
So, 23.09. 0:50 1(1140m) 4(1800m)
So, 23.09. 0:30 1(1500m) 3(2100m)
So, 23.09. 0:00 4(1800m) 5(2100m)
Sa, 22.09. 23:30 1(1200m) 4(1800m)
Sa, 22.09. 23:00 9 9 9
Ortszeit Luftdruck NN (hPa) Tendenz (hPa in 3 Std.)
So, 23.09. 2:00 1014 + 0,3
Sa, 22.09. 20:00 1013 0,0
Sa, 22.09. 14:00 1013 + 0,7
Sa, 22.09. 8:00 1011 + 1,7
Sa, 22.09. 2:00 1007 + 1,7
Fr, 21.09. 20:00 1004 + 1,3
Fr, 21.09. 14:00 1000 + 3,0
Fr, 21.09. 8:00 999 - 4,1
Ortszeit Luftdruck NN (hPa) Tendenz (hPa in 3 Std.)
So, 23.09. 2:00 1014 + 0,3
So, 23.09. 1:40 1013 keine Meldung
So, 23.09. 1:30 1014 + 0,4
So, 23.09. 1:20 1014 keine Meldung
So, 23.09. 1:10 1013 keine Meldung
So, 23.09. 1:00 1013 + 0,1
So, 23.09. 0:50 1013 keine Meldung
So, 23.09. 0:30 1013 + 0,1
So, 23.09. 0:00 1013 + 0,2
Sa, 22.09. 23:30 1013 + 0,4
Sa, 22.09. 23:00 1013 + 0,6
Ortszeit Schneehöhe (cm)
So, 23.09. 2:00 -
Sa, 22.09. 20:00 0
Sa, 22.09. 14:00 0
Sa, 22.09. 8:00 0
Sa, 22.09. 2:00 -
Fr, 21.09. 20:00 0
Fr, 21.09. 14:00 0
Fr, 21.09. 8:00 0
Ortszeit Schneehöhe (cm)
So, 23.09. 2:00 -
So, 23.09. 1:40 -
So, 23.09. 1:30 -
So, 23.09. 1:20 -
So, 23.09. 1:10 -
So, 23.09. 1:00 -
So, 23.09. 0:50 -
So, 23.09. 0:30 -
So, 23.09. 0:00 -
Sa, 22.09. 23:30 -
Sa, 22.09. 23:00 -
Link zu dieser Seite / Seite empfehlen

Das Wetter in ...